createdAt,value
2017-08-18T00:00:34.742Z,23.76
2017-08-18T00:01:36.577Z,23.72
2017-08-18T00:02:38.463Z,23.75
2017-08-18T00:03:40.352Z,23.65
2017-08-18T00:04:42.237Z,23.66
2017-08-18T00:05:56.401Z,23.61
2017-08-18T00:06:58.282Z,23.54
2017-08-18T00:08:00.168Z,23.55
2017-08-18T00:09:02.061Z,23.50
2017-08-18T00:10:03.897Z,23.46
2017-08-18T00:11:05.721Z,23.51
2017-08-18T00:12:07.607Z,23.48
2017-08-18T00:13:09.493Z,23.48
2017-08-18T00:14:11.383Z,23.51
2017-08-18T00:15:25.542Z,23.47
2017-08-18T00:16:27.438Z,23.48
2017-08-18T00:17:29.325Z,23.53
2017-08-18T00:18:31.222Z,23.51
2017-08-18T00:19:33.050Z,23.53
2017-08-18T00:20:34.884Z,23.50
2017-08-18T00:21:36.768Z,23.42
2017-08-18T00:22:38.666Z,23.36
2017-08-18T00:23:40.551Z,23.43
2017-08-18T00:24:54.722Z,23.48
2017-08-18T00:25:56.617Z,23.38
2017-08-18T00:26:58.503Z,23.31
2017-08-18T00:28:00.398Z,23.33
2017-08-18T00:29:02.221Z,23.31
2017-08-18T00:30:04.046Z,23.35
2017-08-18T00:31:05.932Z,23.27
2017-08-18T00:32:07.819Z,23.35
2017-08-18T00:33:09.721Z,23.32
2017-08-18T00:34:23.884Z,23.35
2017-08-18T00:35:25.765Z,23.31
2017-08-18T00:36:27.661Z,23.33
2017-08-18T00:37:29.545Z,23.28
2017-08-18T00:38:31.371Z,23.28
2017-08-18T00:39:33.195Z,23.25
2017-08-18T00:40:35.082Z,23.27
2017-08-18T00:41:36.980Z,23.23
2017-08-18T00:42:38.877Z,23.25
2017-08-18T00:43:53.035Z,23.32
2017-08-18T00:44:54.930Z,23.17
2017-08-18T00:45:56.828Z,23.17
2017-08-18T00:46:58.715Z,23.16
2017-08-18T00:48:00.549Z,23.05
2017-08-18T00:49:02.383Z,23.15
2017-08-18T00:50:04.272Z,23.13
2017-08-18T00:51:06.122Z,23.02
2017-08-18T00:52:07.939Z,23.19
2017-08-18T00:53:22.103Z,23.12
2017-08-18T00:54:23.986Z,23.04
2017-08-18T00:55:25.873Z,23.09
2017-08-18T00:56:27.758Z,23.13
2017-08-18T00:57:29.584Z,23.00
2017-08-18T00:58:31.402Z,23.05
2017-08-18T00:59:33.293Z,23.05
2017-08-18T01:00:35.180Z,23.05
2017-08-18T01:01:37.064Z,22.98
2017-08-18T01:02:51.234Z,23.02
2017-08-18T01:03:53.122Z,23.01
2017-08-18T01:04:55.010Z,22.86
2017-08-18T01:05:56.897Z,22.85
2017-08-18T01:06:58.723Z,22.98
2017-08-18T01:08:00.555Z,22.97
2017-08-18T01:09:02.453Z,22.98
2017-08-18T01:10:04.343Z,22.85
2017-08-18T01:11:06.230Z,22.85
2017-08-18T01:12:20.400Z,22.95
2017-08-18T01:13:22.296Z,22.98
2017-08-18T01:14:24.191Z,22.88
2017-08-18T01:15:26.077Z,22.86
2017-08-18T01:16:27.901Z,22.91
2017-08-18T01:17:29.735Z,22.83
2017-08-18T01:18:31.622Z,22.90
2017-08-18T01:19:33.519Z,22.79
2017-08-18T01:20:35.403Z,22.77
2017-08-18T01:21:49.572Z,22.73
2017-08-18T01:22:51.468Z,22.72
2017-08-18T01:23:53.363Z,22.75
2017-08-18T01:24:55.246Z,22.75
2017-08-18T01:25:57.071Z,22.75
2017-08-18T01:26:58.895Z,22.76
2017-08-18T01:28:00.780Z,22.76
2017-08-18T01:29:02.667Z,22.79
2017-08-18T01:30:04.561Z,22.72
2017-08-18T01:31:18.716Z,22.70
2017-08-18T01:32:20.600Z,22.68
2017-08-18T01:33:22.495Z,22.70
2017-08-18T01:34:24.390Z,22.68
2017-08-18T01:35:26.214Z,22.76
2017-08-18T01:36:28.037Z,22.73
2017-08-18T01:37:29.925Z,22.67
2017-08-18T01:38:31.809Z,22.65
2017-08-18T01:39:34.671Z,22.68
2017-08-18T01:40:48.834Z,22.73
2017-08-18T01:41:50.717Z,22.70
2017-08-18T01:42:52.617Z,22.65
2017-08-18T01:43:54.500Z,22.64
2017-08-18T01:44:56.328Z,22.70
2017-08-18T01:45:58.149Z,22.64
2017-08-18T01:47:00.036Z,22.61
2017-08-18T01:48:01.922Z,22.70
2017-08-18T01:49:03.812Z,22.57
2017-08-18T01:50:17.975Z,22.64
2017-08-18T01:51:19.871Z,22.52
2017-08-18T01:52:21.770Z,22.58
2017-08-18T01:53:23.666Z,22.55
2017-08-18T01:54:25.491Z,22.55
2017-08-18T01:55:27.317Z,22.54
2017-08-18T01:56:29.203Z,22.55
2017-08-18T01:57:31.102Z,22.60
2017-08-18T01:58:32.991Z,22.51
2017-08-18T01:59:47.153Z,22.60
2017-08-18T02:00:49.037Z,22.49
2017-08-18T02:01:50.928Z,22.49
2017-08-18T02:02:52.816Z,22.47
2017-08-18T02:03:54.639Z,22.51
2017-08-18T02:04:56.475Z,22.54
2017-08-18T02:05:58.365Z,22.45
2017-08-18T02:07:00.249Z,22.49
2017-08-18T02:08:02.138Z,22.46
2017-08-18T02:09:16.300Z,22.42
2017-08-18T02:10:18.199Z,22.33
2017-08-18T02:11:20.088Z,22.33
2017-08-18T02:12:21.977Z,22.31
2017-08-18T02:13:23.801Z,22.33
2017-08-18T02:14:25.627Z,22.39
2017-08-18T02:15:27.524Z,22.42
2017-08-18T02:16:29.421Z,22.39
2017-08-18T02:17:31.310Z,22.30
2017-08-18T02:18:45.472Z,22.33
2017-08-18T02:19:47.371Z,22.30
2017-08-18T02:20:49.260Z,22.36
2017-08-18T02:21:51.146Z,22.27
2017-08-18T02:22:52.982Z,22.25
2017-08-18T02:23:54.810Z,22.28
2017-08-18T02:24:56.702Z,22.20
2017-08-18T02:25:58.589Z,22.17
2017-08-18T02:27:00.481Z,22.14
2017-08-18T02:28:14.693Z,22.15
2017-08-18T02:29:16.582Z,22.12
2017-08-18T02:30:18.478Z,21.99
2017-08-18T02:31:20.357Z,22.05
2017-08-18T02:32:22.193Z,22.03
2017-08-18T02:33:24.026Z,22.02
2017-08-18T02:34:25.908Z,22.06
2017-08-18T02:35:27.796Z,22.06
2017-08-18T02:36:29.686Z,22.03
2017-08-18T02:37:43.851Z,22.07
2017-08-18T02:38:45.737Z,22.06
2017-08-18T02:39:47.640Z,22.05
2017-08-18T02:40:49.624Z,22.05
2017-08-18T02:41:51.451Z,21.99
2017-08-18T02:42:53.275Z,21.96
2017-08-18T02:43:55.164Z,21.99
2017-08-18T02:44:57.054Z,22.03
2017-08-18T02:45:58.942Z,22.05
2017-08-18T02:47:13.116Z,21.98
2017-08-18T02:48:15.002Z,22.05
2017-08-18T02:49:16.893Z,22.05
2017-08-18T02:50:18.780Z,22.05
2017-08-18T02:51:20.604Z,21.92
2017-08-18T02:52:22.428Z,22.09
2017-08-18T02:53:24.253Z,22.14
2017-08-18T02:54:26.078Z,22.09
2017-08-18T02:55:27.906Z,22.17
2017-08-18T02:56:42.068Z,22.12
2017-08-18T02:57:43.954Z,22.14
2017-08-18T02:58:45.853Z,22.15
2017-08-18T02:59:47.743Z,22.12
2017-08-18T03:00:49.576Z,22.14
2017-08-18T03:01:51.413Z,22.10
2017-08-18T03:02:53.303Z,22.10
2017-08-18T03:03:55.201Z,22.00
2017-08-18T03:04:57.091Z,22.05
2017-08-18T03:06:11.255Z,21.99
2017-08-18T03:07:13.143Z,21.98
2017-08-18T03:08:15.034Z,22.10
2017-08-18T03:09:16.918Z,22.07
2017-08-18T03:10:18.751Z,22.05
2017-08-18T03:11:20.576Z,21.99
2017-08-18T03:12:22.466Z,22.03
2017-08-18T03:13:24.355Z,21.96
2017-08-18T03:14:26.242Z,22.03
2017-08-18T03:15:40.403Z,22.06
2017-08-18T03:16:42.299Z,21.98
2017-08-18T03:17:44.181Z,21.92
2017-08-18T03:18:46.070Z,21.91
2017-08-18T03:19:47.895Z,21.90
2017-08-18T03:20:49.719Z,21.90
2017-08-18T03:21:51.618Z,21.90
2017-08-18T03:22:53.507Z,21.86
2017-08-18T03:23:55.396Z,21.74
2017-08-18T03:25:09.594Z,21.84
2017-08-18T03:26:11.492Z,21.75
2017-08-18T03:27:13.379Z,21.84
2017-08-18T03:28:15.265Z,21.82
2017-08-18T03:29:17.101Z,21.80
2017-08-18T03:30:18.929Z,21.75
2017-08-18T03:31:20.817Z,21.74
2017-08-18T03:32:22.706Z,21.62
2017-08-18T03:33:24.596Z,21.69
2017-08-18T03:34:38.760Z,21.61
2017-08-18T03:35:40.646Z,21.67
2017-08-18T03:36:42.547Z,21.68
2017-08-18T03:37:44.434Z,21.65
2017-08-18T03:38:46.255Z,21.65
2017-08-18T03:39:48.085Z,21.64
2017-08-18T03:40:49.989Z,21.59
2017-08-18T03:41:51.883Z,21.65
2017-08-18T03:42:53.769Z,21.54
2017-08-18T03:44:07.981Z,21.58
2017-08-18T03:45:09.868Z,21.53
2017-08-18T03:46:11.759Z,21.47
2017-08-18T03:47:13.646Z,21.53
2017-08-18T03:48:15.484Z,21.49
2017-08-18T03:49:17.311Z,21.53
2017-08-18T03:50:19.204Z,21.47
2017-08-18T03:51:21.091Z,21.54
2017-08-18T03:52:22.982Z,21.54
2017-08-18T03:53:37.158Z,21.54
2017-08-18T03:54:39.047Z,21.52
2017-08-18T03:55:40.949Z,21.49
2017-08-18T03:56:42.840Z,21.54
2017-08-18T03:57:44.666Z,21.53
2017-08-18T03:58:46.492Z,21.50
2017-08-18T03:59:48.370Z,21.49
2017-08-18T04:00:50.294Z,21.49
2017-08-18T04:01:52.185Z,21.49
2017-08-18T04:03:06.351Z,21.47
2017-08-18T04:04:08.240Z,21.49
2017-08-18T04:05:10.134Z,21.52
2017-08-18T04:06:12.026Z,21.44
2017-08-18T04:07:13.854Z,21.56
2017-08-18T04:08:15.685Z,21.49
2017-08-18T04:09:17.577Z,21.47
2017-08-18T04:10:19.477Z,21.56
2017-08-18T04:11:21.371Z,21.50
2017-08-18T04:12:35.538Z,21.52
2017-08-18T04:13:37.428Z,21.50
2017-08-18T04:14:39.332Z,21.50
2017-08-18T04:15:41.229Z,21.50
2017-08-18T04:16:43.052Z,21.52
2017-08-18T04:17:44.880Z,21.50
2017-08-18T04:18:46.773Z,21.52
2017-08-18T04:19:48.665Z,21.54
2017-08-18T04:20:50.559Z,21.50
2017-08-18T04:22:04.724Z,21.49
2017-08-18T04:23:06.630Z,21.52
2017-08-18T04:24:08.511Z,21.53
2017-08-18T04:25:10.400Z,21.49
2017-08-18T04:26:12.229Z,21.49
2017-08-18T04:27:14.062Z,21.50
2017-08-18T04:28:15.956Z,21.47
2017-08-18T04:29:17.855Z,21.53
2017-08-18T04:30:19.760Z,21.53
2017-08-18T04:31:33.975Z,21.47
2017-08-18T04:32:35.867Z,21.54
2017-08-18T04:33:37.761Z,21.54
2017-08-18T04:34:39.677Z,21.54
2017-08-18T04:35:41.500Z,21.52
2017-08-18T04:36:43.334Z,21.53
2017-08-18T04:37:45.227Z,21.58
2017-08-18T04:38:47.128Z,21.56
2017-08-18T04:39:49.024Z,21.65
2017-08-18T04:41:03.202Z,21.65
2017-08-18T04:42:05.094Z,21.74
2017-08-18T04:43:06.987Z,21.77
2017-08-18T04:44:08.878Z,21.77
2017-08-18T04:45:10.706Z,21.75
2017-08-18T04:46:12.536Z,21.90
2017-08-18T04:47:14.428Z,21.92
2017-08-18T04:48:16.331Z,21.92
2017-08-18T04:49:18.228Z,21.96
2017-08-18T04:50:32.392Z,22.06
2017-08-18T04:51:34.292Z,22.10
2017-08-18T04:52:36.212Z,22.15
2017-08-18T04:53:38.119Z,22.21
2017-08-18T04:54:39.950Z,22.28
2017-08-18T04:55:41.779Z,22.27
2017-08-18T04:56:43.672Z,22.43
2017-08-18T04:57:45.563Z,22.52
2017-08-18T04:58:47.459Z,22.58
2017-08-18T05:00:01.611Z,22.73
2017-08-18T05:01:03.435Z,22.73
2017-08-18T05:02:05.274Z,22.79
2017-08-18T05:03:07.178Z,22.88
2017-08-18T05:04:09.081Z,22.92
2017-08-18T05:05:10.952Z,22.91
2017-08-18T05:06:12.783Z,22.79
2017-08-18T05:07:14.610Z,22.83
2017-08-18T05:08:16.504Z,23.05
2017-08-18T05:09:30.735Z,23.15
2017-08-18T05:10:32.626Z,23.19
2017-08-18T05:11:34.533Z,23.23
2017-08-18T05:12:36.430Z,23.36
2017-08-18T05:13:38.258Z,23.43
2017-08-18T05:14:40.092Z,23.54
2017-08-18T05:15:41.986Z,23.63
2017-08-18T05:16:43.881Z,23.55
2017-08-18T05:17:45.774Z,23.60
2017-08-18T05:18:59.991Z,23.51
2017-08-18T05:20:01.889Z,23.50
2017-08-18T05:21:03.782Z,23.48
2017-08-18T05:22:05.685Z,23.54
2017-08-18T05:23:07.524Z,23.55
2017-08-18T05:24:09.350Z,23.55
2017-08-18T05:25:11.245Z,23.57
2017-08-18T05:26:13.141Z,23.60
2017-08-18T05:27:15.038Z,23.63
2017-08-18T05:28:29.206Z,23.60
2017-08-18T05:29:31.097Z,23.60
2017-08-18T05:30:33.004Z,23.58
2017-08-18T05:31:34.899Z,23.55
2017-08-18T05:32:36.730Z,23.53
2017-08-18T05:33:38.561Z,23.57
2017-08-18T05:34:40.459Z,23.68
2017-08-18T05:35:42.360Z,23.54
2017-08-18T05:36:44.255Z,23.54
2017-08-18T05:37:58.423Z,23.60
2017-08-18T05:39:00.317Z,23.55
2017-08-18T05:40:02.216Z,23.55
2017-08-18T05:41:04.113Z,23.54
2017-08-18T05:42:05.945Z,23.65
2017-08-18T05:43:07.776Z,23.75
2017-08-18T05:44:09.673Z,23.76
2017-08-18T05:45:11.569Z,23.93
2017-08-18T05:46:13.464Z,23.97
2017-08-18T05:47:27.637Z,24.12
2017-08-18T05:48:29.529Z,24.12
2017-08-18T05:49:31.437Z,24.22
2017-08-18T05:50:33.331Z,24.24
2017-08-18T05:51:35.161Z,24.22
2017-08-18T05:52:36.992Z,24.34
2017-08-18T05:53:38.888Z,24.34
2017-08-18T05:54:40.783Z,24.37
2017-08-18T05:55:42.677Z,24.43
2017-08-18T05:56:56.846Z,24.52
2017-08-18T05:57:58.738Z,24.58
2017-08-18T05:59:00.632Z,24.58
2017-08-18T06:00:02.526Z,24.61
2017-08-18T06:01:04.357Z,24.55
2017-08-18T06:02:06.189Z,24.53
2017-08-18T06:03:08.083Z,24.64
2017-08-18T06:04:09.976Z,24.60
2017-08-18T06:05:11.873Z,24.58
2017-08-18T06:06:26.041Z,24.68
2017-08-18T06:07:27.932Z,24.71
2017-08-18T06:08:29.825Z,24.73
2017-08-18T06:09:31.718Z,24.71
2017-08-18T06:10:33.552Z,24.76
2017-08-18T06:11:35.381Z,24.76
2017-08-18T06:12:37.275Z,24.78
2017-08-18T06:13:39.166Z,24.80
2017-08-18T06:14:41.062Z,24.87
2017-08-18T06:15:55.230Z,24.88
2017-08-18T06:16:57.120Z,24.90
2017-08-18T06:17:59.014Z,24.93
2017-08-18T06:19:00.906Z,24.96
2017-08-18T06:20:02.736Z,24.91
2017-08-18T06:21:04.578Z,25.06
2017-08-18T06:22:06.467Z,25.03
2017-08-18T06:23:08.359Z,25.08
2017-08-18T06:24:10.254Z,25.08
2017-08-18T06:25:24.423Z,25.09
2017-08-18T06:26:26.315Z,25.14
2017-08-18T06:27:28.211Z,25.10
2017-08-18T06:28:30.101Z,25.13
2017-08-18T06:29:31.944Z,25.13
2017-08-18T06:30:33.776Z,25.10
2017-08-18T06:31:35.671Z,25.10
2017-08-18T06:32:37.563Z,25.10
2017-08-18T06:33:39.461Z,25.05
2017-08-18T06:34:53.629Z,25.06
2017-08-18T06:35:55.520Z,25.03
2017-08-18T06:36:57.416Z,25.13
2017-08-18T06:37:59.308Z,25.09
2017-08-18T06:39:01.139Z,25.03
2017-08-18T06:40:02.972Z,25.10
2017-08-18T06:41:04.866Z,25.08
2017-08-18T06:42:06.758Z,25.13
2017-08-18T06:43:08.657Z,25.15
2017-08-18T06:44:22.828Z,25.14
2017-08-18T06:45:24.720Z,25.06
2017-08-18T06:46:26.615Z,25.15
2017-08-18T06:47:28.508Z,25.13
2017-08-18T06:48:30.338Z,25.28
2017-08-18T06:49:32.171Z,25.27
2017-08-18T06:50:34.065Z,25.28
2017-08-18T06:51:35.968Z,25.38
2017-08-18T06:52:37.865Z,25.43
2017-08-18T06:53:52.036Z,25.39
2017-08-18T06:54:53.930Z,25.33
2017-08-18T06:55:55.822Z,25.39
2017-08-18T06:56:57.714Z,25.32
2017-08-18T06:57:59.548Z,25.33
2017-08-18T06:59:01.382Z,25.43
2017-08-18T07:00:03.281Z,25.45
2017-08-18T07:01:05.175Z,25.50
2017-08-18T07:02:07.076Z,25.46
2017-08-18T07:03:21.240Z,25.54
2017-08-18T07:04:23.132Z,25.47
2017-08-18T07:05:25.040Z,25.62
2017-08-18T07:06:26.935Z,25.52
2017-08-18T07:07:28.766Z,25.54
2017-08-18T07:08:30.599Z,25.54
2017-08-18T07:09:32.496Z,25.60
2017-08-18T07:10:34.397Z,25.57
2017-08-18T07:11:36.293Z,25.60
2017-08-18T07:12:50.474Z,25.62
2017-08-18T07:13:52.365Z,25.60
2017-08-18T07:14:54.263Z,25.51
2017-08-18T07:15:56.157Z,25.50
2017-08-18T07:16:57.987Z,25.58
2017-08-18T07:17:59.819Z,25.58
2017-08-18T07:19:01.717Z,25.67
2017-08-18T07:20:03.612Z,25.67
2017-08-18T07:21:05.508Z,25.64
2017-08-18T07:22:19.678Z,25.72
2017-08-18T07:23:21.572Z,25.75
2017-08-18T07:24:23.482Z,25.72
2017-08-18T07:25:25.376Z,25.75
2017-08-18T07:26:27.208Z,25.73
2017-08-18T07:27:29.040Z,25.76
2017-08-18T07:28:30.938Z,25.72
2017-08-18T07:29:32.832Z,25.79
2017-08-18T07:30:34.728Z,25.80
2017-08-18T07:31:48.898Z,25.83
2017-08-18T07:32:50.797Z,25.85
2017-08-18T07:33:52.691Z,25.83
2017-08-18T07:34:54.587Z,25.83
2017-08-18T07:35:56.418Z,25.83
2017-08-18T07:36:58.250Z,25.90
2017-08-18T07:38:00.156Z,25.90
2017-08-18T07:39:02.042Z,25.94
2017-08-18T07:40:03.938Z,26.05
2017-08-18T07:41:18.106Z,26.02
2017-08-18T07:42:20.002Z,26.13
2017-08-18T07:43:21.905Z,26.15
2017-08-18T07:44:23.799Z,26.09
2017-08-18T07:45:25.631Z,26.15
2017-08-18T07:46:27.463Z,26.07
2017-08-18T07:47:29.359Z,26.09
2017-08-18T07:48:31.253Z,26.12
2017-08-18T07:49:33.149Z,26.10
2017-08-18T07:50:47.318Z,26.06
2017-08-18T07:51:49.213Z,26.06
2017-08-18T07:52:51.122Z,26.07
2017-08-18T07:53:53.027Z,26.12
2017-08-18T07:54:54.867Z,26.10
2017-08-18T07:55:56.710Z,26.02
2017-08-18T07:56:58.608Z,26.06
2017-08-18T07:58:00.503Z,26.12
2017-08-18T07:59:02.401Z,26.18
2017-08-18T08:00:16.569Z,26.07
2017-08-18T08:01:18.464Z,26.17
2017-08-18T08:02:20.361Z,26.21
2017-08-18T08:03:22.256Z,26.21
2017-08-18T08:04:24.090Z,26.21
2017-08-18T08:05:25.919Z,26.32
2017-08-18T08:06:27.818Z,26.35
2017-08-18T08:07:29.711Z,26.40
2017-08-18T08:08:31.610Z,26.35
2017-08-18T08:09:45.781Z,26.47
2017-08-18T08:10:47.701Z,26.45
2017-08-18T08:11:49.572Z,26.52
2017-08-18T08:12:51.467Z,26.55
2017-08-18T08:13:53.297Z,26.47
2017-08-18T08:14:55.130Z,26.58
2017-08-18T08:15:57.033Z,26.58
2017-08-18T08:16:58.924Z,26.60
2017-08-18T08:18:00.821Z,26.63
2017-08-18T08:19:15.041Z,26.60
2017-08-18T08:20:16.936Z,26.66
2017-08-18T08:21:18.833Z,26.76
2017-08-18T08:22:20.739Z,26.92
2017-08-18T08:23:22.573Z,26.88
2017-08-18T08:24:24.406Z,26.92
2017-08-18T08:25:26.302Z,27.03
2017-08-18T08:26:28.200Z,27.12
2017-08-18T08:27:30.102Z,27.28
2017-08-18T08:28:44.274Z,27.34
2017-08-18T08:29:46.167Z,27.37
2017-08-18T08:30:48.074Z,27.39
2017-08-18T08:31:49.979Z,27.44
2017-08-18T08:32:51.813Z,27.47
2017-08-18T08:33:53.646Z,27.59
2017-08-18T08:34:55.544Z,27.57
2017-08-18T08:35:57.441Z,27.54
2017-08-18T08:36:59.338Z,27.66
2017-08-18T08:38:13.510Z,27.62
2017-08-18T08:39:15.412Z,27.70
2017-08-18T08:40:17.324Z,27.69
2017-08-18T08:41:19.220Z,27.59
2017-08-18T08:42:21.053Z,27.70
2017-08-18T08:43:22.886Z,27.70
2017-08-18T08:44:24.794Z,27.66
2017-08-18T08:45:26.687Z,27.65
2017-08-18T08:46:28.585Z,27.65
2017-08-18T08:47:42.757Z,27.74
2017-08-18T08:48:44.651Z,27.72
2017-08-18T08:49:46.550Z,27.69
2017-08-18T08:50:48.446Z,27.62
2017-08-18T08:51:50.277Z,27.67
2017-08-18T08:52:52.113Z,27.69
2017-08-18T08:53:54.033Z,27.72
2017-08-18T08:54:55.908Z,27.75
2017-08-18T08:55:57.805Z,27.69
2017-08-18T08:57:11.987Z,27.69
2017-08-18T08:58:13.882Z,27.60
2017-08-18T08:59:15.779Z,27.55
2017-08-18T09:00:17.675Z,27.60
2017-08-18T09:01:19.519Z,27.63
2017-08-18T09:02:21.353Z,27.69
2017-08-18T09:03:23.252Z,27.72
2017-08-18T09:04:25.148Z,27.70
2017-08-18T09:05:27.006Z,27.77
2017-08-18T09:06:41.176Z,27.74
2017-08-18T09:07:43.070Z,27.74
2017-08-18T09:08:44.995Z,27.75
2017-08-18T09:09:46.936Z,27.77
2017-08-18T09:10:48.817Z,27.84
2017-08-18T09:11:50.708Z,27.92
2017-08-18T09:12:52.639Z,27.96
2017-08-18T09:13:54.561Z,28.09
2017-08-18T09:14:56.458Z,28.04
2017-08-18T09:16:10.642Z,28.15
2017-08-18T09:17:12.534Z,28.15
2017-08-18T09:18:14.443Z,28.25
2017-08-18T09:19:16.338Z,28.27
2017-08-18T09:20:18.172Z,28.22
2017-08-18T09:21:20.039Z,28.29
2017-08-18T09:22:21.911Z,28.29
2017-08-18T09:23:23.819Z,28.31
2017-08-18T09:24:25.720Z,28.37
2017-08-18T09:25:39.966Z,28.40
2017-08-18T09:26:41.836Z,28.25
2017-08-18T09:27:43.746Z,28.43
2017-08-18T09:28:45.641Z,28.37
2017-08-18T09:29:47.483Z,28.40
2017-08-18T09:30:49.317Z,28.43
2017-08-18T09:31:51.221Z,28.51
2017-08-18T09:32:53.113Z,28.55
2017-08-18T09:33:55.011Z,28.52
2017-08-18T09:35:09.183Z,28.51
2017-08-18T09:36:11.078Z,28.62
2017-08-18T09:37:12.974Z,28.64
2017-08-18T09:38:14.870Z,28.70
2017-08-18T09:39:16.702Z,28.71
2017-08-18T09:40:18.548Z,28.81
2017-08-18T09:41:20.444Z,28.88
2017-08-18T09:42:22.355Z,28.83
2017-08-18T09:43:24.249Z,28.86
2017-08-18T09:44:38.431Z,28.92
2017-08-18T09:45:40.325Z,28.98
2017-08-18T09:46:42.236Z,28.98
2017-08-18T09:47:44.145Z,29.04
2017-08-18T09:48:45.977Z,28.98
2017-08-18T09:49:47.816Z,28.96
2017-08-18T09:50:49.710Z,29.02
2017-08-18T09:51:51.616Z,28.98
2017-08-18T09:52:53.514Z,29.11
2017-08-18T09:54:07.688Z,29.19
2017-08-18T09:55:09.583Z,29.28
2017-08-18T09:56:11.481Z,29.30
2017-08-18T09:57:13.388Z,29.33
2017-08-18T09:58:15.224Z,29.34
2017-08-18T09:59:17.060Z,29.41
2017-08-18T10:00:18.958Z,29.51
2017-08-18T10:01:20.855Z,29.53
2017-08-18T10:02:22.751Z,29.60
2017-08-18T10:03:36.929Z,29.60
2017-08-18T10:04:38.825Z,29.58
2017-08-18T10:05:40.730Z,29.58
2017-08-18T10:06:42.623Z,29.70
2017-08-18T10:07:44.459Z,29.82
2017-08-18T10:08:46.298Z,29.94
2017-08-18T10:09:48.201Z,29.95
2017-08-18T10:10:50.095Z,29.90
2017-08-18T10:11:51.995Z,29.98
2017-08-18T10:13:06.172Z,30.07
2017-08-18T10:14:08.065Z,30.13
2017-08-18T10:15:09.976Z,30.02
2017-08-18T10:16:11.871Z,30.11
2017-08-18T10:17:13.707Z,30.08
2017-08-18T10:18:15.547Z,30.10
2017-08-18T10:19:17.446Z,30.22
2017-08-18T10:20:19.349Z,30.19
2017-08-18T10:21:21.241Z,30.22
2017-08-18T10:22:35.414Z,30.23
2017-08-18T10:23:37.311Z,30.22
2017-08-18T10:24:39.209Z,30.23
2017-08-18T10:25:41.107Z,30.32
2017-08-18T10:26:42.953Z,30.32
2017-08-18T10:27:44.810Z,30.34
2017-08-18T10:28:46.711Z,30.26
2017-08-18T10:29:48.652Z,30.29
2017-08-18T10:30:50.564Z,30.31
2017-08-18T10:32:04.757Z,30.24
2017-08-18T10:33:06.654Z,30.13
2017-08-18T10:34:08.568Z,30.19
2017-08-18T10:35:10.462Z,30.20
2017-08-18T10:36:12.311Z,30.08
2017-08-18T10:37:14.131Z,30.11
2017-08-18T10:38:16.042Z,30.16
2017-08-18T10:39:17.951Z,30.04
2017-08-18T10:40:19.850Z,30.01
2017-08-18T10:41:34.023Z,29.94
2017-08-18T10:42:35.921Z,29.79
2017-08-18T10:43:37.831Z,29.76
2017-08-18T10:44:39.728Z,29.73
2017-08-18T10:45:41.570Z,29.74
2017-08-18T10:46:43.396Z,29.76
2017-08-18T10:47:45.307Z,29.68
2017-08-18T10:48:47.210Z,29.74
2017-08-18T10:49:49.109Z,29.71
2017-08-18T10:51:03.284Z,29.58
2017-08-18T10:52:05.194Z,29.67
2017-08-18T10:53:07.090Z,29.57
2017-08-18T10:54:08.998Z,29.58
2017-08-18T10:55:10.834Z,29.53
2017-08-18T10:56:12.669Z,29.60
2017-08-18T10:57:14.565Z,29.60
2017-08-18T10:58:16.478Z,29.61
2017-08-18T10:59:18.374Z,29.55
2017-08-18T11:00:32.544Z,29.57
2017-08-18T11:01:34.441Z,29.65
2017-08-18T11:02:36.344Z,29.68
2017-08-18T11:03:38.238Z,29.60
2017-08-18T11:04:40.073Z,29.67
2017-08-18T11:05:41.911Z,29.65
2017-08-18T11:06:43.810Z,29.68
2017-08-18T11:07:45.666Z,29.71
2017-08-18T11:08:47.508Z,29.76
2017-08-18T11:10:01.675Z,29.87
2017-08-18T11:11:03.571Z,29.92
2017-08-18T11:12:05.467Z,30.01
2017-08-18T11:13:07.364Z,30.17
2017-08-18T11:14:09.200Z,30.23
2017-08-18T11:15:11.035Z,30.22
2017-08-18T11:16:12.934Z,30.34
2017-08-18T11:17:15.029Z,30.39
2017-08-18T11:18:16.929Z,30.45
2017-08-18T11:19:31.106Z,30.45
2017-08-18T11:20:32.998Z,30.60
2017-08-18T11:21:34.908Z,30.67
2017-08-18T11:22:36.818Z,30.76
2017-08-18T11:23:38.654Z,30.89
2017-08-18T11:24:40.489Z,30.99
2017-08-18T11:25:42.388Z,31.07
2017-08-18T11:26:44.287Z,31.09
2017-08-18T11:27:46.187Z,31.20
2017-08-18T11:29:00.363Z,31.31
2017-08-18T11:30:02.259Z,31.32
2017-08-18T11:31:04.166Z,31.36
2017-08-18T11:32:06.077Z,31.50
2017-08-18T11:33:07.899Z,31.73
2017-08-18T11:34:09.738Z,31.72
2017-08-18T11:35:11.638Z,31.73
2017-08-18T11:36:13.537Z,31.70
2017-08-18T11:37:15.443Z,31.86
2017-08-18T11:38:29.619Z,31.88
2017-08-18T11:39:31.524Z,31.88
2017-08-18T11:40:33.423Z,31.93
2017-08-18T11:41:35.329Z,32.01
2017-08-18T11:42:37.167Z,32.07
2017-08-18T11:43:39.006Z,32.13
2017-08-18T11:44:40.905Z,32.11
2017-08-18T11:45:42.804Z,31.99
2017-08-18T11:46:44.703Z,31.89
2017-08-18T11:47:58.887Z,31.89
2017-08-18T11:49:00.784Z,31.96
2017-08-18T11:50:02.680Z,32.00
2017-08-18T11:51:04.574Z,32.14
2017-08-18T11:52:06.420Z,32.19
2017-08-18T11:53:08.253Z,32.29
2017-08-18T11:54:10.150Z,32.29
2017-08-18T11:55:12.061Z,32.28
2017-08-18T11:56:13.967Z,32.41
2017-08-18T11:57:28.139Z,32.28
2017-08-18T11:58:30.037Z,32.13
2017-08-18T11:59:31.937Z,32.07
2017-08-18T12:00:33.834Z,31.99
2017-08-18T12:01:35.682Z,32.01
2017-08-18T12:02:37.523Z,32.06
2017-08-18T12:03:39.426Z,32.13
2017-08-18T12:04:41.324Z,32.06
2017-08-18T12:05:43.221Z,32.22
2017-08-18T12:06:57.400Z,32.29
2017-08-18T12:07:59.296Z,32.26
2017-08-18T12:09:01.195Z,32.30
2017-08-18T12:10:03.089Z,32.19
2017-08-18T12:11:04.927Z,32.00
2017-08-18T12:12:06.764Z,31.96
2017-08-18T12:13:08.662Z,32.04
2017-08-18T12:14:10.568Z,32.01
2017-08-18T12:15:12.470Z,32.01
2017-08-18T12:16:26.644Z,32.06
2017-08-18T12:17:28.535Z,31.92
2017-08-18T12:18:30.442Z,31.80
2017-08-18T12:19:32.341Z,31.84
2017-08-18T12:20:34.182Z,31.80
2017-08-18T12:21:36.021Z,31.76
2017-08-18T12:22:37.920Z,31.72
2017-08-18T12:23:39.816Z,31.75
2017-08-18T12:24:41.715Z,31.73
2017-08-18T12:25:55.939Z,31.84
2017-08-18T12:26:57.835Z,31.86
2017-08-18T12:27:59.735Z,31.78
2017-08-18T12:29:01.632Z,31.85
2017-08-18T12:30:03.471Z,31.68
2017-08-18T12:31:05.311Z,31.61
2017-08-18T12:32:07.210Z,31.58
2017-08-18T12:33:09.106Z,31.73
2017-08-18T12:34:11.004Z,31.75
2017-08-18T12:35:25.182Z,31.69
2017-08-18T12:36:27.077Z,31.70
2017-08-18T12:37:28.987Z,31.66
2017-08-18T12:38:30.896Z,31.68
2017-08-18T12:39:32.734Z,31.68
2017-08-18T12:40:34.584Z,31.76
2017-08-18T12:41:36.483Z,31.92
2017-08-18T12:42:38.378Z,31.95
2017-08-18T12:43:40.277Z,32.03
2017-08-18T12:44:54.454Z,31.93
2017-08-18T12:45:56.349Z,31.99
2017-08-18T12:46:58.247Z,31.95
2017-08-18T12:48:00.142Z,32.07
2017-08-18T12:49:01.992Z,32.23
2017-08-18T12:50:03.831Z,32.35
2017-08-18T12:51:05.732Z,32.33
2017-08-18T12:52:07.631Z,32.30
2017-08-18T12:53:09.529Z,32.29
2017-08-18T12:54:23.707Z,32.40
2017-08-18T12:55:25.603Z,32.47
2017-08-18T12:56:27.505Z,32.63
2017-08-18T12:57:29.413Z,32.60
2017-08-18T12:58:31.238Z,32.59
2017-08-18T12:59:33.078Z,32.77
2017-08-18T13:00:34.979Z,32.67
2017-08-18T13:01:36.877Z,32.72
2017-08-18T13:02:38.779Z,32.60
2017-08-18T13:03:52.957Z,32.60
2017-08-18T13:04:54.863Z,32.69
2017-08-18T13:05:56.778Z,32.70
2017-08-18T13:06:58.676Z,32.72
2017-08-18T13:08:00.515Z,32.85
2017-08-18T13:09:02.354Z,32.82
2017-08-18T13:10:04.254Z,32.81
2017-08-18T13:11:06.152Z,32.84
2017-08-18T13:12:08.050Z,32.88
2017-08-18T13:13:22.228Z,32.82
2017-08-18T13:14:24.125Z,32.70
2017-08-18T13:15:26.029Z,32.77
2017-08-18T13:16:27.929Z,32.67
2017-08-18T13:17:29.773Z,32.59
2017-08-18T13:18:31.616Z,32.51
2017-08-18T13:19:33.530Z,32.72
2017-08-18T13:20:35.428Z,32.63
2017-08-18T13:21:37.322Z,32.79
2017-08-18T13:22:51.496Z,32.69
2017-08-18T13:23:53.396Z,32.74
2017-08-18T13:24:55.291Z,32.75
2017-08-18T13:25:57.184Z,32.62
2017-08-18T13:26:59.041Z,32.72
2017-08-18T13:28:00.872Z,32.70
2017-08-18T13:29:02.775Z,32.67
2017-08-18T13:30:04.671Z,32.72
2017-08-18T13:31:06.571Z,32.74
2017-08-18T13:32:20.749Z,32.92
2017-08-18T13:33:22.648Z,33.04
2017-08-18T13:34:24.559Z,33.15